Time;durP1;ratioP1;P1;durP2;ratioP2;P2;SDS_P1;SDS_P2;PMS_P1;PMS_P2;Temp;Humidity;BMP_temperature;BMP_pressure;BME280_temperature;BME280_humidity;BME280_pressure;Samples;Min_cycle;Max_cycle;Signal;HPM_P1;HPM_P2
2023/01/17 00:01:59;;;;;;;3.97;0.90;;;3.20;99.90;;;;;;5085379;28;20173;-61
2023/01/17 00:09:57;;;;;;;2.00;0.50;;;3.10;99.90;;;;;;5079980;28;20052;-60
2023/01/17 00:12:25;;;;;;;1.85;0.60;;;3.00;99.90;;;;;;5084661;28;20044;-60
2023/01/17 00:14:53;;;;;;;0.50;0.40;;;3.00;99.90;;;;;;5084250;28;20335;-57
2023/01/17 00:17:19;;;;;;;2.38;0.65;;;2.80;99.90;;;;;;5084780;28;20510;-63
2023/01/17 01:34:23;;;;;;;9.85;1.63;;;3.10;99.90;;;;;;5082591;28;20113;-60
2023/01/17 01:36:49;;;;;;;8.55;1.75;;;3.10;99.90;;;;;;5065471;28;20096;-61
2023/01/17 01:39:14;;;;;;;8.27;1.63;;;3.10;99.90;;;;;;5081933;28;20523;-61
2023/01/17 01:41:40;;;;;;;10.90;1.80;;;3.00;99.90;;;;;;5083401;28;20453;-60
2023/01/17 01:44:42;;;;;;;7.95;1.17;;;3.00;99.90;;;;;;5082223;28;20123;-61
2023/01/17 01:47:21;;;;;;;13.20;1.42;;;3.00;99.90;;;;;;5083279;28;20047;-61
2023/01/17 01:49:47;;;;;;;6.80;1.00;;;3.00;99.90;;;;;;5082551;28;20131;-63
2023/01/17 01:52:14;;;;;;;8.32;1.00;;;2.90;99.90;;;;;;5068019;28;20518;-62
2023/01/17 01:54:45;;;;;;;3.45;1.10;;;2.90;99.90;;;;;;5081435;28;20060;-60
2023/01/17 01:57:15;;;;;;;8.70;1.08;;;2.80;99.90;;;;;;5065292;28;20039;-59
2023/01/17 01:59:47;;;;;;;6.95;1.20;;;2.90;99.90;;;;;;5047689;28;20048;-60
2023/01/17 02:02:13;;;;;;;4.65;0.95;;;2.90;99.90;;;;;;5086003;28;20048;-61
2023/01/17 02:04:39;;;;;;;4.68;0.70;;;2.90;99.90;;;;;;5086472;28;20130;-61
2023/01/17 02:07:13;;;;;;;7.55;1.05;;;2.90;99.90;;;;;;5087451;28;20127;-62
2023/01/17 02:09:39;;;;;;;10.38;1.42;;;2.90;99.90;;;;;;5085222;28;20090;-62
2023/01/17 02:12:06;;;;;;;9.70;1.25;;;2.90;99.90;;;;;;5087306;28;20067;-61
2023/01/17 02:14:31;;;;;;;11.63;2.13;;;2.90;99.90;;;;;;5087131;28;20062;-61
2023/01/17 02:17:29;;;;;;;7.70;1.20;;;2.80;99.90;;;;;;5068382;28;20104;-62
2023/01/17 02:20:36;;;;;;;14.43;1.40;;;2.70;99.90;;;;;;5086140;28;20036;-60
2023/01/17 02:23:43;;;;;;;10.52;1.67;;;2.70;99.90;;;;;;5085405;28;20040;-62
2023/01/17 02:26:47;;;;;;;11.00;1.30;;;2.70;99.90;;;;;;5063796;28;20483;-63
2023/01/17 02:29:51;;;;;;;13.43;1.80;;;2.70;99.90;;;;;;5042625;28;20059;-62
2023/01/17 02:32:27;;;;;;;7.80;1.58;;;2.60;99.90;;;;;;5079014;28;20090;-61
2023/01/17 02:35:03;;;;;;;14.60;1.88;;;2.60;99.90;;;;;;5066070;28;20378;-63
2023/01/17 02:37:56;;;;;;;11.18;1.50;;;2.60;99.90;;;;;;5074852;28;20582;-60
2023/01/17 02:40:27;;;;;;;17.92;1.80;;;2.70;99.90;;;;;;5073352;28;20071;-60
2023/01/17 02:43:01;;;;;;;15.88;1.33;;;2.70;99.90;;;;;;5066620;28;20182;-63
2023/01/17 02:45:27;;;;;;;10.73;1.80;;;2.70;99.90;;;;;;5066618;28;20062;-62
2023/01/17 02:47:52;;;;;;;13.98;1.60;;;2.70;99.90;;;;;;5066196;28;20115;-59
2023/01/17 02:50:22;;;;;;;11.48;1.48;;;2.70;99.90;;;;;;5065371;28;20715;-61
2023/01/17 02:53:02;;;;;;;15.95;1.70;;;2.80;99.90;;;;;;5060325;28;20051;-59
2023/01/17 02:55:37;;;;;;;13.77;1.55;;;2.80;99.90;;;;;;5065588;28;20076;-60
2023/01/17 02:58:42;;;;;;;11.73;1.60;;;2.80;99.90;;;;;;5047859;28;20040;-60
2023/01/17 03:01:36;;;;;;;9.68;1.17;;;2.80;99.90;;;;;;5044146;28;20102;-60
2023/01/17 03:04:24;;;;;;;16.38;1.73;;;2.80;99.90;;;;;;5065440;28;20029;-59
2023/01/17 03:07:15;;;;;;;15.00;2.10;;;2.80;99.90;;;;;;5066277;28;20154;-61
2023/01/17 03:09:42;;;;;;;12.32;1.52;;;2.80;99.90;;;;;;5083826;28;20036;-61
2023/01/17 03:12:09;;;;;;;11.90;1.95;;;2.80;99.90;;;;;;5085954;28;20036;-61
2023/01/17 03:14:34;;;;;;;11.88;1.75;;;2.80;99.90;;;;;;5068850;28;20049;-62
2023/01/17 03:17:00;;;;;;;12.57;2.10;;;2.90;99.90;;;;;;5065941;28;20048;-60
2023/01/17 03:19:25;;;;;;;13.23;1.85;;;2.80;99.90;;;;;;5046583;28;20044;-61
2023/01/17 03:21:51;;;;;;;18.25;1.80;;;2.80;99.90;;;;;;5085006;28;20048;-61
2023/01/17 03:24:16;;;;;;;6.45;1.50;;;2.80;99.90;;;;;;5083841;28;20036;-61
2023/01/17 03:26:43;;;;;;;10.13;1.90;;;2.80;99.90;;;;;;5085060;28;20119;-59
2023/01/17 03:29:10;;;;;;;13.93;1.80;;;2.70;99.90;;;;;;5084371;28;20052;-60
2023/01/17 03:31:35;;;;;;;14.85;1.50;;;2.70;99.90;;;;;;5084509;28;20036;-61
2023/01/17 03:34:01;;;;;;;10.43;1.80;;;2.70;99.90;;;;;;5084310;28;20407;-60
2023/01/17 03:36:27;;;;;;;11.93;1.40;;;2.70;99.90;;;;;;5085163;28;20040;-63
2023/01/17 03:38:52;;;;;;;8.05;1.30;;;2.60;99.90;;;;;;5078818;28;20093;-61
2023/01/17 03:41:18;;;;;;;11.73;1.60;;;2.60;99.90;;;;;;5061609;28;20927;-62
2023/01/17 03:43:43;;;;;;;8.80;1.38;;;2.60;99.90;;;;;;5064727;28;20655;-61
2023/01/17 03:46:21;;;;;;;10.00;1.60;;;2.60;99.90;;;;;;5074968;28;20043;-61
2023/01/17 03:48:47;;;;;;;6.10;1.20;;;2.60;99.90;;;;;;5084892;28;20173;-60
2023/01/17 03:51:12;;;;;;;9.25;1.38;;;2.50;99.90;;;;;;5084882;28;20036;-60
2023/01/17 03:53:38;;;;;;;9.95;1.13;;;2.50;99.90;;;;;;5083183;28;20056;-60
2023/01/17 03:56:04;;;;;;;7.95;1.50;;;2.50;99.90;;;;;;5084579;28;20055;-59
2023/01/17 03:58:29;;;;;;;11.85;1.40;;;2.50;99.90;;;;;;5084792;28;20073;-61
2023/01/17 04:00:55;;;;;;;9.90;1.40;;;2.50;99.90;;;;;;5084643;28;20044;-61
2023/01/17 04:03:21;;;;;;;8.85;1.70;;;2.50;99.90;;;;;;5084815;28;20040;-60
2023/01/17 04:05:46;;;;;;;10.85;1.33;;;2.50;99.90;;;;;;5084982;28;20109;-59
2023/01/17 04:08:12;;;;;;;11.85;1.40;;;2.50;99.90;;;;;;5083298;28;20536;-60
2023/01/17 04:10:38;;;;;;;8.90;2.00;;;2.50;99.90;;;;;;5083843;28;20398;-61
2023/01/17 04:13:03;;;;;;;9.55;1.35;;;2.50;99.90;;;;;;5084858;28;20110;-60
2023/01/17 04:15:29;;;;;;;10.10;1.40;;;2.50;99.90;;;;;;5083805;28;20071;-59
2023/01/17 04:17:55;;;;;;;12.65;1.40;;;2.50;99.90;;;;;;5084900;28;20039;-61
2023/01/17 04:20:32;;;;;;;7.40;1.63;;;2.50;99.90;;;;;;5065904;28;20028;-61
2023/01/17 04:22:58;;;;;;;10.02;1.70;;;2.50;99.90;;;;;;5083387;28;20692;-61
2023/01/17 04:25:24;;;;;;;9.13;1.60;;;2.50;99.90;;;;;;5064463;28;20102;-59
2023/01/17 04:27:53;;;;;;;11.00;1.52;;;2.50;99.90;;;;;;5063793;28;20071;-61
2023/01/17 04:30:19;;;;;;;13.45;1.50;;;2.40;99.90;;;;;;5063729;28;20531;-61
2023/01/17 04:32:45;;;;;;;9.23;1.40;;;2.30;99.90;;;;;;5067947;28;20062;-61
2023/01/17 04:35:10;;;;;;;6.72;1.40;;;2.30;99.90;;;;;;5083658;28;20039;-61
2023/01/17 04:37:36;;;;;;;15.27;1.83;;;2.20;99.90;;;;;;5083254;28;20032;-62
2023/01/17 04:40:03;;;;;;;8.40;1.60;;;2.20;99.90;;;;;;5081804;28;20044;-60
2023/01/17 04:42:29;;;;;;;9.25;1.48;;;2.10;99.90;;;;;;5084895;28;20483;-60
2023/01/17 04:44:55;;;;;;;11.73;1.63;;;2.10;99.90;;;;;;5083781;28;20105;-61
2023/01/17 04:47:20;;;;;;;12.10;1.50;;;2.10;99.90;;;;;;5065462;28;20048;-61
2023/01/17 04:49:46;;;;;;;11.38;1.77;;;2.00;99.90;;;;;;5080222;28;20051;-61
2023/01/17 04:52:13;;;;;;;10.80;1.45;;;2.00;99.90;;;;;;5045293;28;20037;-60
2023/01/17 04:54:39;;;;;;;10.75;1.38;;;2.00;99.90;;;;;;5081065;28;20550;-61
2023/01/17 04:57:05;;;;;;;13.90;1.70;;;2.00;99.90;;;;;;5065782;28;20048;-62
2023/01/17 04:59:31;;;;;;;17.08;1.58;;;2.00;99.90;;;;;;5084101;28;20059;-61
2023/01/17 05:01:56;;;;;;;9.25;1.38;;;2.00;99.90;;;;;;5083466;28;20032;-61
2023/01/17 05:04:22;;;;;;;11.38;1.35;;;2.00;99.90;;;;;;5083382;28;20108;-61
2023/01/17 05:06:47;;;;;;;12.48;1.38;;;1.90;99.90;;;;;;5083701;28;20185;-62
2023/01/17 05:09:13;;;;;;;6.55;1.13;;;1.90;99.90;;;;;;5081618;28;20969;-61
2023/01/17 05:11:38;;;;;;;9.32;1.70;;;2.00;99.90;;;;;;5082914;28;20498;-60
2023/01/17 05:14:04;;;;;;;10.35;1.52;;;2.00;99.90;;;;;;5083569;28;20591;-60
2023/01/17 05:16:30;;;;;;;10.05;1.05;;;2.00;99.90;;;;;;5063938;28;20483;-60
2023/01/17 05:18:58;;;;;;;8.00;1.10;;;2.00;99.90;;;;;;5062594;28;20028;-59
2023/01/17 05:21:24;;;;;;;9.27;1.13;;;2.00;99.90;;;;;;5028731;28;20040;-60
2023/01/17 05:23:50;;;;;;;10.38;1.70;;;2.00;99.90;;;;;;5077402;28;20548;-61
2023/01/17 05:26:15;;;;;;;7.05;1.30;;;1.90;99.90;;;;;;5082248;28;20036;-61
2023/01/17 05:28:41;;;;;;;5.30;1.05;;;1.90;99.90;;;;;;5064917;28;20716;-61
2023/01/17 05:31:06;;;;;;;12.73;1.27;;;1.90;99.90;;;;;;5065166;28;20036;-59
2023/01/17 05:33:32;;;;;;;10.13;1.27;;;1.80;99.90;;;;;;5065070;28;20065;-60
2023/01/17 05:35:58;;;;;;;10.00;1.73;;;1.80;99.90;;;;;;5082748;28;20028;-62
2023/01/17 05:38:23;;;;;;;11.95;1.40;;;1.80;99.90;;;;;;5081803;28;20047;-61
2023/01/17 05:40:49;;;;;;;10.40;1.30;;;1.70;99.90;;;;;;5066959;28;20064;-62
2023/01/17 05:43:15;;;;;;;8.95;1.20;;;1.70;99.90;;;;;;5067571;28;20035;-60
2023/01/17 05:45:40;;;;;;;7.45;1.20;;;1.60;99.90;;;;;;5083071;28;20044;-62
2023/01/17 05:48:06;;;;;;;10.80;1.50;;;1.60;99.90;;;;;;5083393;28;20036;-62
2023/01/17 05:50:36;;;;;;;10.10;1.10;;;1.70;99.90;;;;;;5082757;28;20044;-60
2023/01/17 05:53:05;;;;;;;10.80;1.38;;;1.70;99.90;;;;;;5082368;28;20105;-60
2023/01/17 05:55:32;;;;;;;4.90;1.13;;;1.70;99.90;;;;;;5081497;28;20059;-60
2023/01/17 05:57:58;;;;;;;7.07;1.17;;;1.70;99.90;;;;;;5082924;28;20068;-62
2023/01/17 06:00:24;;;;;;;6.13;1.00;;;1.60;99.90;;;;;;5083470;28;20504;-61
2023/01/17 06:02:52;;;;;;;9.15;2.05;;;1.60;99.90;;;;;;5083509;28;20662;-61
2023/01/17 06:05:18;;;;;;;11.30;1.50;;;1.60;99.90;;;;;;5081758;28;20076;-62
2023/01/17 06:07:45;;;;;;;7.63;1.48;;;1.60;99.90;;;;;;5065773;28;20087;-61
2023/01/17 06:10:14;;;;;;;9.30;1.30;;;1.60;99.90;;;;;;5080363;28;20043;-60
2023/01/17 06:12:44;;;;;;;8.50;1.10;;;1.60;99.90;;;;;;5083184;28;20829;-60
2023/01/17 06:15:11;;;;;;;7.72;1.42;;;1.60;99.90;;;;;;5082398;28;20604;-62
2023/01/17 06:17:37;;;;;;;10.57;1.58;;;1.60;99.90;;;;;;5083211;28;20094;-61
2023/01/17 06:20:04;;;;;;;6.25;1.35;;;1.60;99.90;;;;;;5082511;28;20090;-59
2023/01/17 06:22:30;;;;;;;4.05;0.93;;;1.60;99.90;;;;;;5081888;28;20394;-59
2023/01/17 06:24:55;;;;;;;6.75;1.63;;;1.50;99.90;;;;;;5067929;28;20574;-59
2023/01/17 06:27:21;;;;;;;8.07;1.05;;;1.50;99.90;;;;;;5063004;28;20063;-58
2023/01/17 06:29:47;;;;;;;14.18;1.67;;;1.50;99.90;;;;;;5062393;28;20067;-61
2023/01/17 06:32:13;;;;;;;13.43;1.60;;;1.50;99.90;;;;;;5062846;28;20677;-61
2023/01/17 06:34:41;;;;;;;9.82;1.77;;;1.50;99.90;;;;;;5078656;28;20055;-61
2023/01/17 06:37:10;;;;;;;5.22;1.20;;;1.40;99.90;;;;;;5082825;28;20196;-63
2023/01/17 06:39:35;;;;;;;8.07;1.05;;;1.40;99.90;;;;;;5060276;28;20486;-61
2023/01/17 06:42:01;;;;;;;6.25;1.20;;;1.40;99.90;;;;;;5070269;28;20047;-61
2023/01/17 06:44:26;;;;;;;7.55;1.17;;;1.30;99.90;;;;;;5080609;28;20040;-61
2023/01/17 06:46:52;;;;;;;14.10;1.48;;;1.20;99.90;;;;;;5064613;28;20044;-62
2023/01/17 06:49:18;;;;;;;5.88;1.20;;;1.20;99.90;;;;;;5085435;28;20709;-60
2023/01/17 06:51:44;;;;;;;5.63;1.10;;;1.20;99.90;;;;;;5084710;28;20050;-61
2023/01/17 06:54:10;;;;;;;5.80;1.23;;;1.10;99.90;;;;;;5084657;28;20409;-61
2023/01/17 06:56:36;;;;;;;6.18;0.80;;;1.00;99.90;;;;;;5085431;28;20036;-59
2023/01/17 06:59:02;;;;;;;12.15;1.60;;;1.00;99.90;;;;;;5083785;28;20048;-62
2023/01/17 07:01:28;;;;;;;12.68;1.65;;;0.90;99.90;;;;;;5084862;28;20648;-61
2023/01/17 07:03:54;;;;;;;6.80;1.25;;;0.90;99.90;;;;;;5084729;28;20046;-61
2023/01/17 07:06:27;;;;;;;6.03;0.90;;;0.80;99.90;;;;;;5085696;28;20555;-62
2023/01/17 07:08:54;;;;;;;8.13;1.70;;;0.80;99.90;;;;;;5083136;28;20040;-63
2023/01/17 07:11:20;;;;;;;6.65;0.93;;;0.80;99.90;;;;;;5084753;28;20048;-61
2023/01/17 07:13:46;;;;;;;7.88;1.05;;;0.70;99.90;;;;;;5085147;28;20630;-63
2023/01/17 07:16:18;;;;;;;5.50;0.95;;;0.70;99.90;;;;;;5082070;28;20725;-64
2023/01/17 07:18:47;;;;;;;6.85;0.90;;;0.70;99.90;;;;;;5067446;28;20569;-64
2023/01/17 07:21:14;;;;;;;10.80;1.45;;;0.70;99.90;;;;;;5085749;28;20046;-63
2023/01/17 07:23:40;;;;;;;5.65;0.88;;;0.80;99.90;;;;;;5081584;28;20086;-64
2023/01/17 07:26:06;;;;;;;7.80;1.30;;;0.80;99.90;;;;;;5082256;28;20480;-64
2023/01/17 07:28:32;;;;;;;4.93;1.10;;;0.70;99.90;;;;;;5083586;28;20040;-65
2023/01/17 07:30:58;;;;;;;4.00;0.95;;;0.70;99.90;;;;;;5082283;28;20433;-64
2023/01/17 07:33:26;;;;;;;6.60;1.33;;;0.60;99.90;;;;;;5063669;28;20079;-63
2023/01/17 07:35:55;;;;;;;8.75;1.40;;;0.60;99.90;;;;;;5083221;28;20036;-66
2023/01/17 07:38:20;;;;;;;4.38;1.00;;;0.60;99.90;;;;;;5082328;28;20144;-64
2023/01/17 07:40:46;;;;;;;4.47;1.05;;;0.50;99.90;;;;;;5083231;28;20147;-63
2023/01/17 07:43:12;;;;;;;12.10;1.25;;;0.50;99.90;;;;;;5084659;28;20084;-64
2023/01/17 07:45:42;;;;;;;11.02;1.10;;;0.60;99.90;;;;;;5066620;28;20079;-64
2023/01/17 07:48:08;;;;;;;10.00;1.20;;;0.60;99.90;;;;;;5085057;28;20052;-63
2023/01/17 07:50:35;;;;;;;7.70;1.00;;;0.60;99.90;;;;;;5083785;28;20127;-64
2023/01/17 07:53:01;;;;;;;6.47;1.30;;;0.60;99.90;;;;;;5083914;28;20164;-64
2023/01/17 07:55:27;;;;;;;5.35;1.42;;;0.60;99.90;;;;;;5064467;28;20124;-63
2023/01/17 07:57:53;;;;;;;8.75;1.38;;;0.60;99.90;;;;;;5065811;28;20052;-65
2023/01/17 08:00:20;;;;;;;6.00;1.00;;;0.70;99.90;;;;;;5065387;28;20036;-63
2023/01/17 08:02:45;;;;;;;5.50;1.38;;;0.70;99.90;;;;;;5066837;28;20602;-63
2023/01/17 08:05:13;;;;;;;6.47;1.10;;;0.70;99.90;;;;;;5083473;28;20043;-64
2023/01/17 08:07:39;;;;;;;9.75;1.70;;;0.70;99.90;;;;;;5080802;28;20383;-64
2023/01/17 08:10:06;;;;;;;5.00;1.10;;;0.70;99.90;;;;;;5082711;28;20051;-65
2023/01/17 08:12:32;;;;;;;7.85;1.73;;;0.80;99.90;;;;;;5084491;28;20043;-63
2023/01/17 08:15:01;;;;;;;9.65;1.30;;;0.80;99.90;;;;;;5083441;28;20804;-66
2023/01/17 08:17:27;;;;;;;7.18;1.63;;;0.80;99.90;;;;;;5083982;28;20043;-63
2023/01/17 08:19:59;;;;;;;7.35;1.30;;;0.90;99.90;;;;;;5084051;28;20096;-66
2023/01/17 08:22:24;;;;;;;6.30;1.25;;;1.00;99.90;;;;;;5064818;28;20048;-65
2023/01/17 08:24:50;;;;;;;7.78;1.45;;;1.00;99.90;;;;;;5082507;28;20530;-63
2023/01/17 08:27:15;;;;;;;7.47;1.33;;;1.10;99.90;;;;;;5084077;28;20036;-66
2023/01/17 08:29:45;;;;;;;7.22;1.15;;;1.20;99.90;;;;;;5083436;28;20516;-63
2023/01/17 08:32:18;;;;;;;6.78;1.40;;;1.20;99.90;;;;;;5065910;28;20584;-63
2023/01/17 08:34:44;;;;;;;6.00;1.42;;;1.20;99.90;;;;;;5065945;28;20133;-64
2023/01/17 08:37:09;;;;;;;10.02;1.40;;;1.20;99.90;;;;;;5065962;28;20503;-64
2023/01/17 08:39:35;;;;;;;3.08;0.93;;;1.20;99.90;;;;;;5076699;28;20071;-65
2023/01/17 08:42:01;;;;;;;8.57;1.23;;;1.20;99.90;;;;;;5046169;28;20059;-64
2023/01/17 08:44:26;;;;;;;7.82;1.15;;;1.20;99.90;;;;;;5063465;28;20051;-63
2023/01/17 08:46:52;;;;;;;11.65;1.67;;;1.20;99.90;;;;;;5029349;28;20037;-65
2023/01/17 08:49:18;;;;;;;12.18;1.65;;;1.20;99.90;;;;;;5077605;28;20085;-64
2023/01/17 08:51:46;;;;;;;8.75;1.25;;;1.30;99.90;;;;;;5084077;28;20127;-64
2023/01/17 08:54:13;;;;;;;6.88;1.60;;;1.30;99.90;;;;;;5062930;28;20106;-64
2023/01/17 08:56:41;;;;;;;10.25;1.75;;;1.30;99.90;;;;;;5083223;28;20061;-66
2023/01/17 08:59:09;;;;;;;5.15;1.30;;;1.40;99.90;;;;;;5084062;28;20039;-63
2023/01/17 09:01:41;;;;;;;6.43;1.40;;;1.40;99.90;;;;;;5083327;28;20032;-64
2023/01/17 09:04:08;;;;;;;11.27;1.50;;;1.40;99.90;;;;;;5065132;28;20044;-63
2023/01/17 09:06:38;;;;;;;6.13;1.30;;;1.50;99.90;;;;;;5083480;28;20043;-65
2023/01/17 09:09:10;;;;;;;6.22;1.15;;;1.50;99.90;;;;;;5081759;28;20044;-65
2023/01/17 09:11:36;;;;;;;6.95;1.20;;;1.60;99.90;;;;;;5064433;28;20494;-65
2023/01/17 09:14:02;;;;;;;6.28;1.15;;;1.60;99.90;;;;;;5065778;28;20433;-66
2023/01/17 09:16:28;;;;;;;6.13;1.63;;;1.70;99.90;;;;;;5081141;28;20044;-65
2023/01/17 09:18:56;;;;;;;12.13;1.40;;;1.80;99.90;;;;;;5064437;28;20048;-63
2023/01/17 09:21:22;;;;;;;10.70;1.30;;;1.80;99.90;;;;;;5065265;28;20433;-64
2023/01/17 09:23:48;;;;;;;5.68;1.50;;;1.90;99.90;;;;;;5082167;28;20050;-63
2023/01/17 09:26:26;;;;;;;9.65;1.20;;;1.90;99.90;;;;;;5082759;28;20044;-65
2023/01/17 09:28:52;;;;;;;8.50;1.13;;;2.10;99.90;;;;;;5082607;28;20086;-63
2023/01/17 09:31:19;;;;;;;7.00;1.30;;;2.10;99.90;;;;;;5083027;28;20489;-67
2023/01/17 09:33:46;;;;;;;6.75;1.38;;;2.10;99.90;;;;;;5082937;28;20055;-65
2023/01/17 09:36:12;;;;;;;6.10;1.38;;;2.10;99.90;;;;;;5082852;28;20055;-68
2023/01/17 09:38:41;;;;;;;7.72;1.55;;;2.20;99.90;;;;;;5079160;28;20505;-64
2023/01/17 09:41:30;;;;;;;6.13;1.10;;;2.20;99.90;;;;;;5043691;28;20044;-65
2023/01/17 09:44:23;;;;;;;7.10;1.30;;;2.20;99.90;;;;;;5061407;28;20048;-64
2023/01/17 09:46:52;;;;;;;5.80;1.40;;;2.30;99.90;;;;;;5074538;28;20037;-62
2023/01/17 09:49:39;;;;;;;6.50;1.40;;;2.30;99.90;;;;;;5062984;28;20037;-61
2023/01/17 09:52:12;;;;;;;9.95;1.10;;;2.40;99.90;;;;;;5045161;28;20507;-64
2023/01/17 09:54:40;;;;;;;8.23;1.50;;;2.40;99.90;;;;;;5080621;28;20056;-59
2023/01/17 09:57:31;;;;;;;6.18;1.50;;;2.50;99.90;;;;;;5083194;28;20136;-61
2023/01/17 10:00:07;;;;;;;7.53;1.50;;;2.60;99.90;;;;;;5064350;28;20035;-60
2023/01/17 10:02:48;;;;;;;9.90;2.20;;;2.70;99.90;;;;;;5065119;28;20629;-65
2023/01/17 10:05:42;;;;;;;8.40;1.63;;;2.90;99.90;;;;;;5063907;28;20056;-61
2023/01/17 10:08:22;;;;;;;4.63;1.00;;;3.20;99.90;;;;;;5082339;28;20130;-67
2023/01/17 10:11:07;;;;;;;4.78;1.00;;;3.40;99.90;;;;;;5063727;28;20052;-61
2023/01/17 10:13:41;;;;;;;3.47;1.10;;;3.30;99.90;;;;;;5064686;28;20044;-62
2023/01/17 10:16:34;;;;;;;6.32;1.45;;;3.10;99.90;;;;;;5063630;28;20040;-64
2023/01/17 10:19:07;;;;;;;6.55;1.02;;;2.90;99.90;;;;;;5043480;28;20297;-61
2023/01/17 10:22:01;;;;;;;5.78;1.27;;;2.80;99.90;;;;;;5062733;28;20066;-62
2023/01/17 10:24:41;;;;;;;8.45;1.00;;;2.70;99.90;;;;;;5081177;28;20036;-62
2023/01/17 10:27:29;;;;;;;8.27;1.35;;;2.60;99.90;;;;;;5087522;28;20040;-62
2023/01/17 10:29:54;;;;;;;7.07;1.40;;;2.70;99.90;;;;;;5067869;28;20044;-61
2023/01/17 10:32:23;;;;;;;8.40;1.27;;;2.80;99.90;;;;;;5068655;28;20306;-62
2023/01/17 10:34:50;;;;;;;9.32;1.30;;;3.00;99.90;;;;;;5065914;28;20032;-61
2023/01/17 10:37:36;;;;;;;5.85;1.13;;;3.30;99.90;;;;;;5086080;28;20418;-65
2023/01/17 10:40:32;;;;;;;9.35;1.52;;;3.50;99.90;;;;;;5069991;28;20032;-62
2023/01/17 10:43:03;;;;;;;6.53;1.50;;;3.60;99.90;;;;;;5048978;28;20097;-62
2023/01/17 10:45:38;;;;;;;9.10;1.80;;;3.70;99.90;;;;;;5068126;28;20047;-62
2023/01/17 10:48:21;;;;;;;7.50;1.15;;;3.80;99.90;;;;;;5067665;28;20432;-60
2023/01/17 10:51:02;;;;;;;10.60;1.17;;;3.90;99.90;;;;;;5067673;28;20048;-66
2023/01/17 10:53:52;;;;;;;5.88;1.27;;;4.00;99.90;;;;;;5046248;28;20060;-64
2023/01/17 10:56:24;;;;;;;8.07;1.30;;;4.30;99.90;;;;;;5047747;28;20282;-60
2023/01/17 10:59:01;;;;;;;9.18;1.55;;;4.60;99.90;;;;;;5077243;28;20409;-67
2023/01/17 11:01:26;;;;;;;8.95;1.40;;;4.90;99.90;;;;;;5067485;28;20071;-63
2023/01/17 11:03:54;;;;;;;7.63;1.40;;;5.20;99.90;;;;;;5067715;28;20105;-67
2023/01/17 11:06:27;;;;;;;4.88;1.35;;;5.50;99.90;;;;;;5083408;28;20032;-64
2023/01/17 11:08:58;;;;;;;6.07;1.30;;;5.80;99.90;;;;;;5044879;28;20044;-62
2023/01/17 11:11:30;;;;;;;7.82;1.60;;;5.70;99.40;;;;;;5065236;28;20287;-61
2023/01/17 11:13:59;;;;;;;10.40;1.48;;;5.80;99.90;;;;;;5047569;28;20055;-62
2023/01/17 11:16:30;;;;;;;5.32;1.23;;;5.80;99.90;;;;;;5067258;28;20040;-61
2023/01/17 11:19:28;;;;;;;8.35;1.10;;;5.80;99.70;;;;;;5085692;28;20605;-61
2023/01/17 11:22:01;;;;;;;7.57;1.40;;;5.60;97.80;;;;;;5086220;28;20045;-61
2023/01/17 11:24:39;;;;;;;6.78;1.40;;;5.50;99.10;;;;;;5082850;28;20051;-62
2023/01/17 11:27:07;;;;;;;8.80;1.45;;;5.50;98.70;;;;;;5084307;28;20495;-61
2023/01/17 11:29:34;;;;;;;6.97;1.23;;;5.60;99.40;;;;;;5083452;28;20415;-60
2023/01/17 11:32:28;;;;;;;7.20;1.40;;;5.80;99.90;;;;;;5085369;28;20040;-62
2023/01/17 11:35:13;;;;;;;6.45;1.30;;;5.80;98.00;;;;;;5065573;28;20047;-65
2023/01/17 11:37:50;;;;;;;7.60;1.55;;;5.90;97.70;;;;;;5066105;28;20132;-63
2023/01/17 11:40:18;;;;;;;9.38;1.45;;;6.00;98.70;;;;;;5065153;28;20097;-65
2023/01/17 11:42:44;;;;;;;9.60;1.58;;;5.80;96.50;;;;;;5085085;28;20046;-62
2023/01/17 11:45:27;;;;;;;7.18;1.00;;;5.60;98.10;;;;;;5084328;28;20135;-63
2023/01/17 11:48:31;;;;;;;4.68;1.30;;;5.60;99.50;;;;;;5065160;28;20044;-62
2023/01/17 11:50:58;;;;;;;5.00;1.20;;;5.70;98.30;;;;;;5026264;28;20131;-63
2023/01/17 11:53:28;;;;;;;6.35;1.40;;;5.80;99.80;;;;;;5083879;28;20048;-62
2023/01/17 11:56:18;;;;;;;5.55;1.27;;;5.50;98.30;;;;;;5065436;28;20709;-64
2023/01/17 11:58:50;;;;;;;3.65;1.00;;;5.40;98.40;;;;;;5084744;28;20039;-62
2023/01/17 12:01:30;;;;;;;8.32;1.50;;;5.30;99.30;;;;;;5066208;28;20181;-63
2023/01/17 12:04:06;;;;;;;5.47;1.30;;;5.20;99.20;;;;;;5071275;28;20314;-61
2023/01/17 12:06:48;;;;;;;10.23;1.40;;;5.30;99.00;;;;;;5046594;28;20120;-61
2023/01/17 12:09:41;;;;;;;6.82;1.27;;;5.50;99.20;;;;;;5058833;28;20124;-62
2023/01/17 12:15:51;;;;;;;7.50;1.27;;;5.50;98.70;;;;;;5084452;28;20064;-62
2023/01/17 12:18:39;;;;;;;6.78;1.10;;;5.40;99.00;;;;;;5084014;28;20482;-63
2023/01/17 12:21:45;;;;;;;10.32;1.35;;;5.40;98.60;;;;;;5084807;28;20063;-61
2023/01/17 12:24:44;;;;;;;5.85;1.35;;;5.40;99.30;;;;;;4964246;28;20445;-62
2023/01/17 12:27:27;;;;;;;5.03;1.17;;;5.10;98.70;;;;;;5083814;28;20040;-61
2023/01/17 12:30:09;;;;;;;10.02;1.58;;;5.00;99.80;;;;;;5065604;28;20040;-61
2023/01/17 12:32:43;;;;;;;4.82;1.10;;;4.80;99.50;;;;;;5065684;28;20099;-60
2023/01/17 12:35:12;;;;;;;9.00;1.48;;;4.80;99.60;;;;;;5065426;28;20405;-62
2023/01/17 12:37:42;;;;;;;9.20;1.10;;;4.80;99.70;;;;;;5083131;28;20082;-62
2023/01/17 12:40:43;;;;;;;5.40;1.10;;;4.90;99.90;;;;;;5067058;28;20070;-62
2023/01/17 12:43:21;;;;;;;5.53;1.30;;;4.90;99.40;;;;;;5027849;28;20649;-63
2023/01/17 12:45:49;;;;;;;5.32;1.40;;;5.10;99.10;;;;;;5056192;28;20537;-63
2023/01/17 12:48:19;;;;;;;7.00;1.60;;;5.20;98.40;;;;;;5083334;28;20036;-63
2023/01/17 12:50:48;;;;;;;6.55;1.30;;;5.30;98.90;;;;;;5064291;28;20088;-64
2023/01/17 12:53:22;;;;;;;5.57;1.20;;;5.30;99.40;;;;;;5060974;28;20044;-65
2023/01/17 12:56:23;;;;;;;9.20;1.27;;;5.20;99.20;;;;;;5044369;28;20059;-63
2023/01/17 12:59:02;;;;;;;8.23;1.70;;;5.00;99.70;;;;;;5037878;28;20060;-63
2023/01/17 13:01:38;;;;;;;7.57;1.40;;;5.00;99.90;;;;;;5035873;28;20086;-62
2023/01/17 13:04:18;;;;;;;6.93;1.40;;;4.90;99.00;;;;;;5063374;28;20047;-63
2023/01/17 13:06:58;;;;;;;11.63;1.08;;;5.10;98.10;;;;;;5063677;28;20131;-61
2023/01/17 13:09:24;;;;;;;4.68;0.90;;;5.20;99.40;;;;;;5076830;28;20043;-60
2023/01/17 13:12:00;;;;;;;6.28;1.35;;;5.10;99.10;;;;;;5084348;28;20083;-65
2023/01/17 13:14:26;;;;;;;7.78;1.42;;;5.20;97.90;;;;;;5065165;28;20794;-62
2023/01/17 13:17:18;;;;;;;7.30;1.00;;;5.30;97.40;;;;;;5052113;28;20547;-62
2023/01/17 13:19:56;;;;;;;11.57;1.50;;;5.50;96.50;;;;;;5062415;28;20048;-65
2023/01/17 13:22:29;;;;;;;7.65;1.55;;;5.60;97.00;;;;;;5058520;28;20051;-61
2023/01/17 13:25:25;;;;;;;2.92;0.90;;;5.70;96.20;;;;;;5063310;28;20564;-61
2023/01/17 13:28:13;;;;;;;4.68;1.10;;;5.70;93.30;;;;;;5065352;28;20061;-59
2023/01/17 13:31:00;;;;;;;4.47;1.00;;;5.50;94.00;;;;;;5082056;28;20052;-64
2023/01/17 13:33:52;;;;;;;3.45;1.10;;;5.60;94.50;;;;;;5083043;28;20692;-63
2023/01/17 13:36:33;;;;;;;13.38;1.40;;;5.50;94.20;;;;;;5033232;28;20059;-62
2023/01/17 13:39:28;;;;;;;6.70;1.17;;;5.50;94.00;;;;;;5081447;28;20040;-66
2023/01/17 13:42:09;;;;;;;3.72;0.98;;;5.50;94.90;;;;;;5063083;28;20079;-64
2023/01/17 13:44:36;;;;;;;5.35;1.13;;;5.50;93.40;;;;;;5043453;28;20094;-63
2023/01/17 13:47:25;;;;;;;4.60;0.93;;;5.50;95.00;;;;;;5065515;28;20096;-62
2023/01/17 13:49:55;;;;;;;3.10;0.90;;;5.40;94.00;;;;;;5073474;28;20125;-60
2023/01/17 13:52:27;;;;;;;4.07;1.00;;;5.20;93.20;;;;;;5082811;28;20036;-68
2023/01/17 13:55:05;;;;;;;5.28;1.13;;;5.00;94.30;;;;;;5049024;28;20083;-61
2023/01/17 13:57:52;;;;;;;7.60;1.10;;;5.00;95.40;;;;;;5086717;28;20048;-66
2023/01/17 14:00:21;;;;;;;7.30;1.10;;;4.80;95.00;;;;;;5084784;28;20044;-60
2023/01/17 14:02:48;;;;;;;3.70;1.20;;;4.60;94.70;;;;;;5068800;28;20044;-61
2023/01/17 14:05:19;;;;;;;7.20;1.75;;;4.60;95.50;;;;;;5050620;28;20106;-62
2023/01/17 14:08:00;;;;;;;3.97;1.02;;;4.50;94.30;;;;;;5054146;28;20046;-64
2023/01/17 14:10:28;;;;;;;6.55;1.05;;;4.40;95.30;;;;;;5064125;28;20275;-64
2023/01/17 14:12:54;;;;;;;6.80;1.15;;;4.30;95.90;;;;;;5067379;28;20040;-66
2023/01/17 14:15:24;;;;;;;4.63;1.20;;;4.20;96.40;;;;;;5067338;28;20032;-67
2023/01/17 14:17:57;;;;;;;4.20;1.08;;;4.10;96.10;;;;;;5066859;28;20047;-64
2023/01/17 14:20:26;;;;;;;4.50;0.90;;;4.20;95.00;;;;;;5034459;28;20704;-61
2023/01/17 14:23:01;;;;;;;4.40;1.00;;;4.20;94.60;;;;;;5065472;28;20054;-64
2023/01/17 14:25:40;;;;;;;2.63;0.80;;;4.30;94.30;;;;;;5065168;28;20071;-64
2023/01/17 14:28:25;;;;;;;4.45;1.02;;;4.40;94.00;;;;;;5067723;28;20048;-63
2023/01/17 14:30:55;;;;;;;;;;;4.30;92.20;;;;;;5066994;28;20044;-61
2023/01/17 14:33:29;;;;;;;4.82;1.27;;;4.30;93.40;;;;;;5082106;28;19924;-64
2023/01/17 14:36:04;;;;;;;7.70;1.40;;;4.30;92.90;;;;;;5083012;28;20101;-61
2023/01/17 14:38:32;;;;;;;5.32;0.90;;;4.30;93.10;;;;;;5081559;28;20086;-63
2023/01/17 14:41:06;;;;;;;6.07;1.33;;;4.30;94.10;;;;;;5082594;28;20127;-62
2023/01/17 14:43:36;;;;;;;9.13;1.95;;;4.20;94.70;;;;;;5064343;28;20032;-61
2023/01/17 14:46:14;;;;;;;7.75;1.55;;;4.20;95.60;;;;;;5083812;28;20047;-62